createdAt,value
2022-07-31T00:02:08.169Z,100.00
2022-07-31T00:04:35.080Z,100.00
2022-07-31T00:07:02.110Z,100.00
2022-07-31T00:09:53.905Z,100.00
2022-07-31T00:12:17.693Z,100.00
2022-07-31T00:14:45.097Z,100.00
2022-07-31T00:17:11.818Z,100.00
2022-07-31T00:19:38.797Z,100.00
2022-07-31T00:22:05.605Z,100.00
2022-07-31T00:24:32.396Z,100.00
2022-07-31T00:26:59.424Z,100.00
2022-07-31T00:29:26.641Z,100.00
2022-07-31T00:31:53.273Z,100.00
2022-07-31T00:34:19.948Z,100.00
2022-07-31T00:36:46.639Z,100.00
2022-07-31T00:39:13.369Z,100.00
2022-07-31T00:41:45.050Z,100.00
2022-07-31T00:44:13.523Z,100.00
2022-07-31T00:46:42.051Z,100.00
2022-07-31T00:49:12.853Z,100.00
2022-07-31T00:51:40.553Z,100.00
2022-07-31T00:54:09.314Z,100.00
2022-07-31T00:56:36.915Z,100.00
2022-07-31T00:59:04.376Z,100.00
2022-07-31T01:01:31.260Z,100.00
2022-07-31T01:03:58.487Z,100.00
2022-07-31T01:06:25.148Z,100.00
2022-07-31T01:08:51.822Z,100.00
2022-07-31T01:12:02.839Z,100.00
2022-07-31T01:14:35.726Z,100.00
2022-07-31T01:17:04.978Z,100.00
2022-07-31T01:19:43.560Z,100.00
2022-07-31T01:22:32.914Z,100.00
2022-07-31T01:25:36.967Z,100.00
2022-07-31T01:28:29.227Z,100.00
2022-07-31T01:31:25.594Z,100.00
2022-07-31T01:34:16.175Z,100.00
2022-07-31T01:36:52.259Z,100.00
2022-07-31T01:39:19.009Z,100.00
2022-07-31T01:41:48.760Z,100.00
2022-07-31T01:44:17.837Z,100.00
2022-07-31T01:46:46.798Z,100.00
2022-07-31T01:49:14.756Z,100.00
2022-07-31T01:51:44.518Z,100.00
2022-07-31T01:54:12.838Z,100.00
2022-07-31T01:56:41.043Z,100.00
2022-07-31T01:59:20.159Z,100.00
2022-07-31T02:01:50.744Z,100.00
2022-07-31T02:04:19.711Z,100.00
2022-07-31T02:06:50.996Z,100.00
2022-07-31T02:09:19.489Z,100.00
2022-07-31T02:11:54.485Z,100.00
2022-07-31T02:14:22.950Z,100.00
2022-07-31T02:16:50.178Z,100.00
2022-07-31T02:19:18.848Z,100.00
2022-07-31T02:21:45.701Z,100.00
2022-07-31T02:24:12.651Z,100.00
2022-07-31T02:26:40.529Z,100.00
2022-07-31T02:29:09.069Z,100.00
2022-07-31T02:32:03.605Z,100.00
2022-07-31T02:34:32.095Z,100.00
2022-07-31T02:37:00.830Z,100.00
2022-07-31T02:39:30.642Z,100.00
2022-07-31T02:42:01.461Z,100.00
2022-07-31T02:44:31.532Z,100.00
2022-07-31T02:47:00.029Z,100.00
2022-07-31T02:49:27.837Z,100.00
2022-07-31T02:51:55.828Z,100.00
2022-07-31T02:54:24.991Z,100.00
2022-07-31T02:56:53.663Z,100.00
2022-07-31T02:59:22.184Z,100.00
2022-07-31T03:01:49.070Z,100.00
2022-07-31T03:04:16.047Z,100.00
2022-07-31T03:06:43.597Z,100.00
2022-07-31T03:09:10.377Z,100.00
2022-07-31T03:11:37.323Z,100.00
2022-07-31T03:14:05.476Z,100.00
2022-07-31T03:16:34.222Z,100.00
2022-07-31T03:19:02.019Z,100.00
2022-07-31T03:21:29.475Z,100.00
2022-07-31T03:23:56.855Z,100.00
2022-07-31T03:26:23.572Z,100.00
2022-07-31T03:28:50.221Z,100.00
2022-07-31T03:31:17.031Z,100.00
2022-07-31T03:33:43.809Z,100.00
2022-07-31T03:36:10.595Z,100.00
2022-07-31T03:38:39.632Z,100.00
2022-07-31T03:41:10.741Z,100.00
2022-07-31T03:43:43.783Z,100.00
2022-07-31T03:46:17.385Z,100.00
2022-07-31T03:48:45.163Z,100.00
2022-07-31T03:51:13.562Z,100.00
2022-07-31T03:53:40.864Z,100.00
2022-07-31T03:56:07.746Z,100.00
2022-07-31T03:58:34.756Z,100.00
2022-07-31T04:01:06.216Z,100.00
2022-07-31T04:03:37.081Z,100.00
2022-07-31T04:06:03.798Z,100.00
2022-07-31T04:08:30.485Z,100.00
2022-07-31T04:10:57.215Z,100.00
2022-07-31T04:13:23.920Z,100.00
2022-07-31T04:15:50.619Z,100.00
2022-07-31T04:18:17.405Z,100.00
2022-07-31T04:20:44.052Z,100.00
2022-07-31T04:23:10.838Z,100.00
2022-07-31T04:25:39.475Z,100.00
2022-07-31T04:28:06.507Z,100.00
2022-07-31T04:30:33.201Z,100.00
2022-07-31T04:32:59.978Z,100.00
2022-07-31T04:35:26.694Z,100.00
2022-07-31T04:37:53.351Z,100.00
2022-07-31T04:40:20.033Z,100.00
2022-07-31T04:42:46.740Z,100.00
2022-07-31T04:45:13.462Z,100.00
2022-07-31T04:47:40.616Z,100.00
2022-07-31T04:50:08.189Z,100.00
2022-07-31T04:52:35.202Z,100.00
2022-07-31T04:55:02.250Z,100.00
2022-07-31T04:57:28.899Z,100.00
2022-07-31T04:59:58.985Z,100.00
2022-07-31T05:02:26.731Z,100.00
2022-07-31T05:04:57.150Z,100.00
2022-07-31T05:07:26.688Z,100.00
2022-07-31T05:09:56.316Z,100.00
2022-07-31T05:12:23.015Z,100.00
2022-07-31T05:14:49.796Z,100.00
2022-07-31T05:17:16.595Z,100.00
2022-07-31T05:19:43.315Z,100.00
2022-07-31T05:22:11.627Z,100.00
2022-07-31T05:24:38.471Z,100.00
2022-07-31T05:27:05.180Z,100.00
2022-07-31T05:29:33.128Z,100.00
2022-07-31T05:32:01.286Z,100.00
2022-07-31T05:34:31.521Z,100.00
2022-07-31T05:37:02.214Z,100.00
2022-07-31T05:39:29.511Z,100.00
2022-07-31T05:41:56.257Z,100.00
2022-07-31T05:44:23.197Z,100.00
2022-07-31T05:49:15.808Z,100.00
2022-07-31T05:51:46.964Z,100.00
2022-07-31T05:54:14.372Z,100.00
2022-07-31T05:56:41.091Z,100.00
2022-07-31T05:59:07.769Z,100.00
2022-07-31T06:01:34.553Z,100.00
2022-07-31T06:04:02.636Z,100.00
2022-07-31T06:06:29.416Z,100.00
2022-07-31T06:08:59.421Z,100.00
2022-07-31T06:11:30.241Z,100.00
2022-07-31T06:13:57.070Z,100.00
2022-07-31T06:16:23.828Z,100.00
2022-07-31T06:18:51.036Z,100.00
2022-07-31T06:23:43.385Z,100.00
2022-07-31T06:26:12.299Z,100.00
2022-07-31T06:28:48.753Z,100.00
2022-07-31T06:31:20.300Z,100.00
2022-07-31T06:33:48.446Z,100.00
2022-07-31T06:36:16.530Z,100.00
2022-07-31T06:38:43.292Z,100.00
2022-07-31T06:41:09.996Z,100.00
2022-07-31T06:43:36.848Z,100.00
2022-07-31T06:46:03.597Z,100.00
2022-07-31T06:48:30.376Z,100.00
2022-07-31T06:51:30.190Z,100.00
2022-07-31T06:53:49.797Z,100.00
2022-07-31T06:56:16.680Z,100.00
2022-07-31T06:58:46.365Z,100.00
2022-07-31T07:01:13.204Z,100.00
2022-07-31T07:03:40.511Z,100.00
2022-07-31T07:06:07.323Z,100.00
2022-07-31T07:08:36.528Z,100.00
2022-07-31T07:11:03.464Z,100.00
2022-07-31T07:13:45.714Z,100.00
2022-07-31T07:16:14.657Z,100.00
2022-07-31T07:18:41.406Z,100.00
2022-07-31T07:21:08.148Z,100.00
2022-07-31T07:23:35.819Z,100.00
2022-07-31T07:26:02.755Z,100.00
2022-07-31T07:28:30.806Z,100.00
2022-07-31T07:30:58.121Z,100.00
2022-07-31T07:33:41.082Z,100.00
2022-07-31T07:36:24.146Z,100.00
2022-07-31T07:38:54.860Z,100.00
2022-07-31T07:41:21.763Z,100.00
2022-07-31T07:43:51.567Z,100.00
2022-07-31T07:46:18.672Z,100.00
2022-07-31T07:48:45.462Z,100.00
2022-07-31T07:51:12.342Z,100.00
2022-07-31T07:53:50.188Z,100.00
2022-07-31T07:56:26.616Z,100.00
2022-07-31T07:58:55.357Z,100.00
2022-07-31T08:01:23.656Z,100.00
2022-07-31T08:03:52.294Z,100.00
2022-07-31T08:06:25.411Z,100.00
2022-07-31T08:08:52.148Z,100.00
2022-07-31T08:11:18.991Z,100.00
2022-07-31T08:13:51.167Z,100.00
2022-07-31T08:16:20.411Z,100.00
2022-07-31T08:18:48.516Z,100.00
2022-07-31T08:21:15.591Z,100.00
2022-07-31T08:23:42.426Z,100.00
2022-07-31T08:26:09.446Z,100.00
2022-07-31T08:28:36.426Z,100.00
2022-07-31T08:31:03.603Z,100.00
2022-07-31T08:33:30.587Z,100.00
2022-07-31T08:35:57.407Z,100.00
2022-07-31T08:38:24.288Z,100.00
2022-07-31T08:40:52.286Z,100.00
2022-07-31T08:44:00.578Z,100.00
2022-07-31T08:46:15.657Z,100.00
2022-07-31T08:48:49.198Z,100.00
2022-07-31T08:51:23.457Z,100.00
2022-07-31T08:53:57.835Z,100.00
2022-07-31T08:56:25.803Z,100.00
2022-07-31T08:58:52.536Z,100.00
2022-07-31T09:01:20.649Z,100.00
2022-07-31T09:03:47.534Z,100.00
2022-07-31T09:06:15.664Z,100.00
2022-07-31T09:08:42.476Z,100.00
2022-07-31T09:11:14.083Z,100.00
2022-07-31T09:14:02.084Z,100.00
2022-07-31T09:16:30.468Z,100.00
2022-07-31T09:19:03.471Z,100.00
2022-07-31T09:21:50.860Z,100.00
2022-07-31T09:24:29.548Z,100.00
2022-07-31T09:27:08.146Z,100.00
2022-07-31T09:30:02.507Z,100.00
2022-07-31T09:32:29.359Z,100.00
2022-07-31T09:35:07.334Z,100.00
2022-07-31T09:37:34.451Z,100.00
2022-07-31T09:40:08.076Z,100.00
2022-07-31T09:42:45.585Z,100.00
2022-07-31T09:45:24.807Z,100.00
2022-07-31T09:48:12.512Z,97.24
2022-07-31T09:50:54.090Z,92.65
2022-07-31T09:53:21.198Z,100.00
2022-07-31T09:55:52.346Z,97.52
2022-07-31T09:58:19.749Z,97.48
2022-07-31T10:00:48.115Z,100.00
2022-07-31T10:03:18.817Z,92.12
2022-07-31T10:05:47.663Z,91.88
2022-07-31T10:08:17.473Z,88.30
2022-07-31T10:10:45.221Z,87.69
2022-07-31T10:13:15.666Z,85.22
2022-07-31T10:15:47.075Z,82.41
2022-07-31T10:18:35.731Z,79.74
2022-07-31T10:21:05.694Z,82.71
2022-07-31T10:23:37.247Z,75.84
2022-07-31T10:26:04.286Z,74.85
2022-07-31T10:28:32.727Z,77.55
2022-07-31T10:30:59.487Z,74.83
2022-07-31T10:33:44.440Z,75.86
2022-07-31T10:36:19.957Z,74.06
2022-07-31T10:39:21.105Z,74.62
2022-07-31T10:41:50.842Z,74.95
2022-07-31T10:44:28.938Z,76.64
2022-07-31T10:46:55.972Z,79.05
2022-07-31T10:49:39.635Z,74.52
2022-07-31T10:52:06.619Z,75.96
2022-07-31T10:54:40.447Z,75.30
2022-07-31T10:57:07.604Z,74.28
2022-07-31T10:59:34.724Z,76.30
2022-07-31T11:02:01.587Z,74.55
2022-07-31T11:04:32.118Z,73.43
2022-07-31T11:06:59.732Z,73.92
2022-07-31T11:09:28.961Z,72.05
2022-07-31T11:11:56.594Z,73.57
2022-07-31T11:14:38.301Z,75.60
2022-07-31T11:17:05.591Z,72.92
2022-07-31T11:19:41.006Z,77.24
2022-07-31T11:22:30.665Z,77.91
2022-07-31T11:24:58.731Z,73.52
2022-07-31T11:27:34.778Z,78.50
2022-07-31T11:30:11.006Z,79.70
2022-07-31T11:32:40.397Z,83.76
2022-07-31T11:35:07.755Z,83.65
2022-07-31T11:37:56.626Z,83.63
2022-07-31T11:40:22.290Z,89.99
2022-07-31T11:43:10.712Z,89.27
2022-07-31T11:45:52.739Z,83.83
2022-07-31T11:48:20.777Z,89.02
2022-07-31T11:50:49.979Z,85.16
2022-07-31T11:53:17.870Z,84.25
2022-07-31T11:55:56.917Z,78.15
2022-07-31T11:58:25.568Z,84.25
2022-07-31T12:01:00.399Z,85.57
2022-07-31T12:03:33.605Z,83.33
2022-07-31T12:06:00.714Z,88.84
2022-07-31T12:08:28.059Z,86.89
2022-07-31T12:10:57.039Z,87.62
2022-07-31T12:13:25.502Z,85.59
2022-07-31T12:15:58.410Z,83.28
2022-07-31T12:18:28.017Z,92.77
2022-07-31T12:20:59.491Z,88.88
2022-07-31T12:23:41.145Z,91.98
2022-07-31T12:26:10.860Z,93.03
2022-07-31T12:28:37.787Z,97.49
2022-07-31T12:31:04.815Z,97.70
2022-07-31T12:33:42.760Z,100.00
2022-07-31T12:36:16.995Z,100.00
2022-07-31T12:38:48.512Z,98.17
2022-07-31T12:41:16.339Z,95.49
2022-07-31T12:43:51.702Z,100.00
2022-07-31T12:46:35.311Z,100.00
2022-07-31T12:49:02.338Z,97.60
2022-07-31T12:51:45.440Z,100.00
2022-07-31T12:54:17.569Z,100.00
2022-07-31T12:56:46.514Z,99.76
2022-07-31T12:59:13.468Z,98.49
2022-07-31T13:01:40.319Z,100.00
2022-07-31T13:04:07.867Z,100.00
2022-07-31T13:06:45.694Z,100.00
2022-07-31T13:09:12.384Z,100.00
2022-07-31T13:11:46.415Z,100.00
2022-07-31T13:14:20.883Z,100.00
2022-07-31T13:16:49.844Z,100.00
2022-07-31T13:19:16.675Z,100.00
2022-07-31T13:21:49.675Z,99.42
2022-07-31T13:24:20.877Z,100.00
2022-07-31T13:26:50.531Z,98.95
2022-07-31T13:29:17.749Z,95.84
2022-07-31T13:31:44.804Z,95.85
2022-07-31T13:34:11.680Z,93.91
2022-07-31T13:36:39.776Z,94.21
2022-07-31T13:39:08.034Z,94.45
2022-07-31T13:41:35.754Z,93.77
2022-07-31T13:44:03.781Z,97.11
2022-07-31T13:46:31.705Z,100.00
2022-07-31T13:48:59.646Z,100.00
2022-07-31T13:51:29.285Z,100.00
2022-07-31T13:53:56.175Z,100.00
2022-07-31T13:56:39.637Z,100.00
2022-07-31T13:59:11.322Z,100.00
2022-07-31T14:02:03.913Z,93.23
2022-07-31T14:04:25.814Z,95.09
2022-07-31T14:06:55.365Z,90.16
2022-07-31T14:09:22.048Z,90.21
2022-07-31T14:11:48.748Z,89.64
2022-07-31T14:14:22.364Z,86.80
2022-07-31T14:16:50.788Z,86.39
2022-07-31T14:19:17.583Z,89.17
2022-07-31T14:21:56.262Z,85.83
2022-07-31T14:24:25.047Z,82.61
2022-07-31T14:26:52.076Z,81.75
2022-07-31T14:29:18.849Z,83.46
2022-07-31T14:31:45.579Z,81.99
2022-07-31T14:34:12.269Z,81.92
2022-07-31T14:36:39.014Z,85.74
2022-07-31T14:39:05.765Z,84.83
2022-07-31T14:41:32.472Z,86.69
2022-07-31T14:43:59.216Z,85.72
2022-07-31T14:46:25.938Z,87.28
2022-07-31T14:48:52.744Z,86.10
2022-07-31T14:51:20.354Z,86.80
2022-07-31T14:53:47.318Z,85.74
2022-07-31T14:56:16.695Z,80.45
2022-07-31T14:58:57.383Z,78.91
2022-07-31T15:01:26.799Z,81.32
2022-07-31T15:03:58.108Z,79.49
2022-07-31T15:06:41.348Z,78.66
2022-07-31T15:09:11.853Z,87.32
2022-07-31T15:12:00.574Z,87.20
2022-07-31T15:14:29.113Z,86.82
2022-07-31T15:16:55.889Z,84.85
2022-07-31T15:19:22.655Z,80.48
2022-07-31T15:22:16.390Z,79.20
2022-07-31T15:24:36.426Z,79.25
2022-07-31T15:27:03.524Z,82.44
2022-07-31T15:30:00.465Z,77.93
2022-07-31T15:32:17.169Z,81.51
2022-07-31T15:34:43.974Z,88.07
2022-07-31T15:37:10.730Z,81.33
2022-07-31T15:40:02.237Z,85.16
2022-07-31T15:42:37.730Z,82.10
2022-07-31T15:45:04.920Z,79.82
2022-07-31T15:47:31.649Z,80.71
2022-07-31T15:49:58.538Z,85.38
2022-07-31T15:52:25.276Z,86.22
2022-07-31T15:54:52.936Z,89.20
2022-07-31T15:57:21.435Z,85.75
2022-07-31T15:59:49.686Z,84.32
2022-07-31T16:02:16.911Z,80.24
2022-07-31T16:04:52.821Z,77.98
2022-07-31T16:08:34.789Z,77.72
2022-07-31T16:10:15.675Z,79.98
2022-07-31T16:12:48.317Z,80.30
2022-07-31T16:15:16.862Z,84.43
2022-07-31T16:17:44.686Z,79.39
2022-07-31T16:20:25.327Z,84.05
2022-07-31T16:22:55.804Z,86.85
2022-07-31T16:25:23.763Z,90.48
2022-07-31T16:27:51.704Z,87.66
2022-07-31T16:30:18.530Z,84.85
2022-07-31T16:32:45.506Z,82.01
2022-07-31T16:35:12.951Z,80.64
2022-07-31T16:37:52.139Z,83.66
2022-07-31T16:40:29.130Z,90.46
2022-07-31T16:43:02.110Z,91.78
2022-07-31T16:45:48.561Z,91.86
2022-07-31T16:48:15.287Z,91.28
2022-07-31T16:50:41.951Z,87.65
2022-07-31T16:53:08.673Z,87.84
2022-07-31T16:55:46.198Z,88.37
2022-07-31T16:58:27.425Z,90.35
2022-07-31T17:00:54.180Z,87.46
2022-07-31T17:03:58.601Z,94.17
2022-07-31T17:06:10.507Z,94.09
2022-07-31T17:08:38.400Z,88.93
2022-07-31T17:11:05.398Z,82.29
2022-07-31T17:13:32.569Z,85.67
2022-07-31T17:15:59.308Z,83.85
2022-07-31T17:18:26.200Z,82.83
2022-07-31T17:20:56.269Z,83.85
2022-07-31T17:23:43.261Z,89.18
2022-07-31T17:26:20.795Z,85.82
2022-07-31T17:28:48.547Z,87.79
2022-07-31T17:31:15.275Z,85.82
2022-07-31T17:33:54.883Z,87.19
2022-07-31T17:36:28.275Z,84.84
2022-07-31T17:38:55.427Z,84.05
2022-07-31T17:41:25.229Z,80.79
2022-07-31T17:43:54.147Z,80.79
2022-07-31T17:46:28.284Z,83.64
2022-07-31T17:49:01.958Z,81.30
2022-07-31T17:51:28.810Z,81.75
2022-07-31T17:53:59.227Z,84.84
2022-07-31T17:56:26.825Z,86.82
2022-07-31T17:58:53.689Z,89.59
2022-07-31T18:01:23.326Z,91.58
2022-07-31T18:03:52.403Z,95.92
2022-07-31T18:06:19.191Z,92.51
2022-07-31T18:08:45.966Z,91.43
2022-07-31T18:11:12.755Z,91.40
2022-07-31T18:13:48.107Z,89.43
2022-07-31T18:16:18.907Z,93.75
2022-07-31T18:18:45.984Z,92.95
2022-07-31T18:21:13.465Z,99.38
2022-07-31T18:23:43.566Z,100.00
2022-07-31T18:26:14.416Z,100.00
2022-07-31T18:28:41.592Z,99.90
2022-07-31T18:31:13.235Z,99.29
2022-07-31T18:33:55.210Z,100.00
2022-07-31T18:36:21.979Z,100.00
2022-07-31T18:38:48.774Z,100.00
2022-07-31T18:41:16.308Z,100.00
2022-07-31T18:43:43.038Z,100.00
2022-07-31T18:46:09.764Z,100.00
2022-07-31T18:48:36.482Z,100.00
2022-07-31T18:51:05.088Z,100.00
2022-07-31T18:53:33.458Z,100.00
2022-07-31T18:56:00.509Z,100.00
2022-07-31T18:58:27.555Z,100.00
2022-07-31T19:00:55.678Z,100.00
2022-07-31T19:03:23.686Z,100.00
2022-07-31T19:05:53.073Z,100.00
2022-07-31T19:08:20.744Z,100.00
2022-07-31T19:10:49.561Z,100.00
2022-07-31T19:13:19.244Z,100.00
2022-07-31T19:15:54.239Z,100.00
2022-07-31T19:18:28.050Z,100.00
2022-07-31T19:21:19.019Z,100.00
2022-07-31T19:23:43.616Z,100.00
2022-07-31T19:26:10.491Z,100.00
2022-07-31T19:28:39.756Z,100.00
2022-07-31T19:31:07.254Z,100.00
2022-07-31T19:33:33.990Z,100.00
2022-07-31T19:36:02.631Z,100.00
2022-07-31T19:38:31.146Z,100.00
2022-07-31T19:40:58.039Z,100.00
2022-07-31T19:43:24.891Z,100.00
2022-07-31T19:46:09.662Z,100.00
2022-07-31T19:48:40.671Z,100.00
2022-07-31T19:51:07.802Z,100.00
2022-07-31T19:53:34.715Z,100.00
2022-07-31T19:56:05.605Z,100.00
2022-07-31T19:58:34.795Z,100.00
2022-07-31T20:01:02.873Z,100.00
2022-07-31T20:03:29.911Z,100.00
2022-07-31T20:05:56.895Z,100.00
2022-07-31T20:08:23.947Z,100.00
2022-07-31T20:10:51.602Z,100.00
2022-07-31T20:13:19.184Z,100.00
2022-07-31T20:15:50.988Z,100.00
2022-07-31T20:18:28.538Z,100.00
2022-07-31T20:21:03.612Z,100.00
2022-07-31T20:23:31.510Z,100.00
2022-07-31T20:25:58.624Z,100.00
2022-07-31T20:28:26.140Z,100.00
2022-07-31T20:30:53.728Z,100.00
2022-07-31T20:33:20.768Z,100.00
2022-07-31T20:35:50.170Z,100.00
2022-07-31T20:38:21.410Z,100.00
2022-07-31T20:40:54.567Z,100.00
2022-07-31T20:43:27.125Z,100.00
2022-07-31T20:45:58.048Z,100.00
2022-07-31T20:48:32.420Z,100.00
2022-07-31T20:51:00.578Z,100.00
2022-07-31T20:53:27.906Z,100.00
2022-07-31T20:55:54.766Z,100.00
2022-07-31T20:58:23.239Z,100.00
2022-07-31T21:00:51.452Z,100.00
2022-07-31T21:03:18.979Z,100.00
2022-07-31T21:05:46.217Z,100.00
2022-07-31T21:08:13.179Z,100.00
2022-07-31T21:10:40.270Z,100.00
2022-07-31T21:13:06.942Z,100.00
2022-07-31T21:15:42.057Z,100.00
2022-07-31T21:18:15.693Z,100.00
2022-07-31T21:20:51.465Z,100.00
2022-07-31T21:23:24.539Z,100.00
2022-07-31T21:25:55.609Z,100.00
2022-07-31T21:28:23.771Z,100.00
2022-07-31T21:30:51.134Z,100.00
2022-07-31T21:33:18.525Z,100.00
2022-07-31T21:35:47.089Z,100.00
2022-07-31T21:38:17.409Z,100.00
2022-07-31T21:40:45.348Z,100.00
2022-07-31T21:43:15.450Z,100.00
2022-07-31T21:45:55.128Z,100.00
2022-07-31T21:48:26.530Z,100.00
2022-07-31T21:50:54.158Z,100.00
2022-07-31T21:53:21.239Z,100.00
2022-07-31T21:55:48.187Z,100.00
2022-07-31T21:58:14.971Z,100.00
2022-07-31T22:00:41.873Z,100.00
2022-07-31T22:03:08.804Z,100.00
2022-07-31T22:05:54.137Z,100.00
2022-07-31T22:08:21.322Z,100.00
2022-07-31T22:10:50.951Z,100.00
2022-07-31T22:13:21.450Z,100.00
2022-07-31T22:16:00.200Z,100.00
2022-07-31T22:18:33.248Z,100.00
2022-07-31T22:21:02.085Z,100.00
2022-07-31T22:23:31.375Z,100.00
2022-07-31T22:25:58.709Z,100.00
2022-07-31T22:28:27.088Z,100.00
2022-07-31T22:30:55.274Z,100.00
2022-07-31T22:33:22.842Z,100.00
2022-07-31T22:35:59.524Z,100.00
2022-07-31T22:38:29.334Z,100.00
2022-07-31T22:40:56.679Z,100.00
2022-07-31T22:44:12.689Z,100.00
2022-07-31T22:46:12.867Z,100.00
2022-07-31T22:48:41.073Z,100.00
2022-07-31T22:51:08.721Z,100.00
2022-07-31T22:53:36.379Z,100.00
2022-07-31T22:56:03.550Z,100.00
2022-07-31T22:58:30.585Z,100.00
2022-07-31T23:00:57.434Z,100.00
2022-07-31T23:03:24.269Z,100.00
2022-07-31T23:06:02.680Z,100.00
2022-07-31T23:08:37.649Z,100.00
2022-07-31T23:11:04.628Z,100.00
2022-07-31T23:13:31.284Z,100.00
2022-07-31T23:15:57.958Z,100.00
2022-07-31T23:18:26.521Z,100.00
2022-07-31T23:20:53.220Z,100.00
2022-07-31T23:23:19.857Z,100.00
2022-07-31T23:25:46.622Z,100.00
2022-07-31T23:28:13.280Z,100.00
2022-07-31T23:30:40.221Z,100.00
2022-07-31T23:33:07.293Z,100.00
2022-07-31T23:35:34.026Z,100.00
2022-07-31T23:38:00.862Z,100.00
2022-07-31T23:40:27.532Z,100.00
2022-07-31T23:42:54.273Z,100.00
2022-07-31T23:45:20.970Z,100.00
2022-07-31T23:47:48.363Z,100.00
2022-07-31T23:50:16.788Z,100.00
2022-07-31T23:52:44.285Z,100.00
2022-07-31T23:55:11.412Z,100.00
2022-07-31T23:57:39.634Z,100.00
